• Join FlightAware (Why Join?)
  • Login
  • US Flag 
06:04PM EDT


 

Airport Tracker/Info


-or-


 

Live Flight TrackerFlight Track Log ✈ JBU41 ✈ 13-Sep-2013 ✈ KFLL - SKRG / MDE

Flight Track Log - Related Links

Times and Time Zones

All times are in EDT time to prevent confusion due to time zone crossing. See the JBU41 flight status page for this flight to view local times or setup timezone preferences in your user account.

Time Position Orientation Groundspeed Altitude Reporting Facility
EDT Latitude Longitude Course Direction KTS MPH feet Rate Location/Type
05:15PM 26.0770 -80.1350 91° East 157 181 800  Level FlightAware
05:15PM 26.0790 -80.1090 85° East 182 209 1,700 1,620 Climbing FlightAware
05:16PM 26.0810 -80.0950 81° East 200 230 2,000 1,140 Climbing FlightAware
05:16PM 26.0830 -80.0700 85° East 236 272 2,400 1,260 Climbing FlightAware
05:16PM 26.0850 -80.0560 81° East 254 292 2,700 2,160 Climbing FlightAware
05:17PM 26.0880 -80.0230 84° East 276 318 3,700 2,880 Climbing FlightAware
05:17PM 26.0840 -79.9820 96° East 286 329 5,200 3,360 Climbing FlightAware
05:17PM 26.0790 -79.9540 101° East 285 328 6,400 3,600 Climbing FlightAware
05:18PM 26.0740 -79.9250 101° East 286 329 7,600 3,240 Climbing FlightAware
05:18PM 26.0700 -79.9070 104° East 287 330 8,200 3,000 Climbing FlightAware
05:18PM 26.0640 -79.8720 101° East 295 339 9,400 2,460 Climbing FlightAware
05:19PM 26.0560 -79.8240 100° East 299 344 10,500 1,680 Climbing FlightAware
05:19PM 26.0460 -79.7690 101° East 336 387 11,300 1,500 Climbing FlightAware
05:20PM 26.0340 -79.7040 102° East 364 419 12,300 1,860 Climbing FlightAware
05:21PM 26.0210 -79.6320 101° East 377 434 13,600 2,040 Climbing FlightAware
05:21PM 26.0060 -79.5720 106° East 380 437 14,800 2,160 Climbing FlightAware
05:21PM 25.9960 -79.5530 120° Southeast 381 438 15,200 2,400 Climbing FlightAware
05:22PM 25.9800 -79.5360 136° Southeast 378 435 15,800 2,400 Climbing FlightAware
05:22PM 25.9560 -79.5200 149° Southeast 367 422 16,400 2,160 Climbing FlightAware
05:22PM 25.8950 -79.5010 164° South 381 438 17,600 1,980 Climbing FlightAware
05:23PM 25.8260 -79.4880 170° South 389 448 18,900 1,920 Climbing FlightAware
05:24PM 25.7610 -79.4760 171° South 395 455 20,000 1,740 Climbing FlightAware
05:24PM 25.6890 -79.4630 171° South 395 455 21,100 1,620 Climbing FlightAware
05:25PM 25.6350 -79.4530 171° South 409 471 21,900 1,440 Climbing FlightAware
05:25PM 25.5690 -79.4410 171° South 408 470 22,700 1,440 Climbing FlightAware
05:26PM 25.5000 -79.4290 171° South 421 484 23,600 1,320 Climbing FlightAware
05:27PM 25.4340 -79.4170 171° South 421 484 24,300 1,260 Climbing FlightAware
05:27PM 25.3610 -79.4040 171° South 436 502 25,100 1,260 Climbing FlightAware
05:28PM 25.2930 -79.3920 171° South 443 510 25,800 1,200 Climbing FlightAware
05:28PM 25.2200 -79.3780 170° South 443 510 26,500 1,080 Climbing FlightAware
05:29PM 25.1480 -79.3660 171° South 456 525 27,100 1,080 Climbing FlightAware
05:30PM 25.0630 -79.3500 170° South 453 521 27,900 1,080 Climbing FlightAware
05:30PM 24.9900 -79.3370 171° South 456 525 28,500 900 Climbing FlightAware
05:31PM 24.9240 -79.3250 171° South 472 543 28,900 840 Climbing FlightAware
05:31PM 24.8400 -79.3100 171° South 471 542 29,500 840 Climbing FlightAware
05:32PM 24.7720 -79.2980 171° South 475 547 29,900 840 Climbing FlightAware
05:33PM 24.6850 -79.2830 171° South 486 559 30,500 1,080 Climbing FlightAware
05:33PM 24.6170 -79.2700 170° South 485 558 31,200 1,440 Climbing FlightAware
05:34PM 24.5400 -79.2570 171° South 471 542 32,100 1,440 Climbing FlightAware
05:34PM 24.4620 -79.2430 171° South 470 541 32,900 1,320 Climbing FlightAware
05:35PM 24.3880 -79.2300 171° South 472 543 33,700 1,080 Climbing FlightAware
05:36PM 24.2890 -79.2120 171° South 474 545 34,400 720 Climbing FlightAware
05:36PM 24.2140 -79.1990 171° South 473 544 34,700 660 Climbing FlightAware
05:37PM 24.1360 -79.1850 171° South 474 545 35,200 1,080 Climbing FlightAware
05:37PM 24.0600 -79.1710 170° South 469 540 36,000 1,080 Climbing FlightAware
05:38PM 23.9840 -79.1580 171° South 476 548 36,500 840 Climbing FlightAware
05:38PM 23.9090 -79.1450 171° South 476 548 37,000 360 Climbing FlightAware
05:39PM 23.8320 -79.1290 169° South 470 541 37,000  Level FlightAware
05:40PM 23.7130 -79.1000 167° South 473 544 37,000  Level FlightAware
05:41PM 23.6480 -79.0830 167° South 473 544 37,000  Level FlightAware
05:41PM 23.5790 -79.0660 167° South 473 544 37,000  Level FlightAware
05:42PM 23.4810 -79.0490 171° South 37,000  Level FlightAware
05:42PM 23.4080 -79.0330 169° South 479 551 37,000  Level FlightAware
05:43PM 23.3080 -79.0110 169° South 479 551 37,000  Level FlightAware
05:44PM 23.2080 -78.9880 168° South 478 550 37,000  Level FlightAware
05:44PM 23.1420 -78.9730 168° South 478 550 37,000  Level FlightAware
05:45PM 23.0760 -78.9580 168° South 478 550 37,000  Level FlightAware
05:46PM 23.0090 -78.9430 168° South 478 550 37,000  Level FlightAware
05:46PM 22.9380 -78.9260 168° South 478 550 37,000  Level FlightAware
05:47PM 22.8700 -78.9100 168° South 478 550 37,000  Level FlightAware
05:48PM 22.8030 -78.8950 168° South 478 550 37,000  Level FlightAware
05:48PM 22.7370 -78.8800 168° South 478 550 37,000  Level FlightAware
05:49PM 22.6710 -78.8650 168° South 478 550 37,000  Level FlightAware
05:49PM 22.6050 -78.8490 167° South 478 550 37,000  Level FlightAware
05:50PM 22.5370 -78.8340 168° South 478 550 37,000  Level FlightAware
05:51PM 22.4690 -78.8180 168° South 478 550 37,000  Level FlightAware
05:51PM 22.4030 -78.8030 168° South 478 550 37,000  Level FlightAware
05:52PM 22.3360 -78.7880 168° South 478 550 37,000  Level FlightAware
05:52PM 22.2700 -78.7720 167° South 478 550 37,000  Level FlightAware
05:53PM 22.2040 -78.7570 168° South 478 550 37,000  Level FlightAware
05:56PM 21.8816 -78.7661 165° South  Level FlightAware Approximate
05:57PM 21.7587 -78.7310 165° South  Level FlightAware Approximate
05:58PM 21.6357 -78.6960 165° South  Level FlightAware Approximate
05:59PM 21.5127 -78.6609 165° South  Level FlightAware Approximate
06:00PM 21.3897 -78.6260 165° South  Level FlightAware Approximate
06:01PM 21.2667 -78.5911 165° South  Level FlightAware Approximate
06:02PM 21.1437 -78.5563 165° South  Level FlightAware Approximate
06:03PM 21.0207 -78.5215 165° South  Level FlightAware Approximate
06:04PM 20.8977 -78.4868 165° South  Level FlightAware Approximate
06:05PM 20.7747 -78.4521 165° South  Level FlightAware Approximate
06:06PM 20.6517 -78.4175 165° South  Level FlightAware Approximate
06:07PM 20.5287 -78.3830 165° South  Level FlightAware Approximate
06:08PM 20.4056 -78.3485 165° South  Level FlightAware Approximate
06:09PM 20.2826 -78.3141 165° South  Level FlightAware Approximate
06:10PM 20.1595 -78.2797 165° South  Level FlightAware Approximate
06:11PM 20.0364 -78.2454 165° South  Level FlightAware Approximate
06:12PM 19.9134 -78.2111 165° South  Level FlightAware Approximate
06:13PM 19.7904 -78.1764 165° South  Level FlightAware Approximate
06:14PM 19.6675 -78.1419 165° South  Level FlightAware Approximate
06:15PM 19.5445 -78.1074 165° South  Level FlightAware Approximate
06:16PM 19.4215 -78.0729 165° South  Level FlightAware Approximate
06:17PM 19.2985 -78.0385 165° South  Level FlightAware Approximate
06:18PM 19.1755 -78.0042 165° South  Level FlightAware Approximate
06:19PM 19.0525 -77.9698 165° South  Level FlightAware Approximate
06:20PM 18.9294 -77.9356 165° South  Level FlightAware Approximate
06:21PM 18.8064 -77.9014 165° South  Level FlightAware Approximate
06:22PM 18.6834 -77.8672 165° South  Level FlightAware Approximate
06:23PM 18.5604 -77.8332 165° South  Level FlightAware Approximate
06:24PM 18.4373 -77.7991 165° South  Level FlightAware Approximate
06:25PM 18.3143 -77.7651 165° South  Level FlightAware Approximate
06:26PM 18.1912 -77.7311 165° South  Level FlightAware Approximate
06:27PM 18.0681 -77.6972 165° South  Level FlightAware Approximate
06:28PM 17.9451 -77.6634 165° South  Level FlightAware Approximate
06:29PM 17.8220 -77.6296 165° South  Level FlightAware Approximate
06:30PM 17.6989 -77.5958 165° South  Level FlightAware Approximate
06:31PM 17.5758 -77.5621 165° South  Level FlightAware Approximate
06:32PM 17.4527 -77.5284 165° South  Level FlightAware Approximate
06:33PM 17.3297 -77.4948 165° South  Level FlightAware Approximate
06:34PM 17.2066 -77.4612 165° South  Level FlightAware Approximate
06:35PM 17.0834 -77.4277 165° South  Level FlightAware Approximate
06:36PM 16.9603 -77.3942 165° South  Level FlightAware Approximate
06:37PM 16.8372 -77.3607 165° South  Level FlightAware Approximate
06:38PM 16.7141 -77.3273 165° South  Level FlightAware Approximate
06:39PM 16.5910 -77.2939 165° South  Level FlightAware Approximate
06:40PM 16.4678 -77.2606 165° South  Level FlightAware Approximate
06:41PM 16.3447 -77.2273 165° South  Level FlightAware Approximate
06:42PM 16.2215 -77.1941 165° South  Level FlightAware Approximate
06:43PM 16.0984 -77.1609 165° South  Level FlightAware Approximate
06:44PM 15.9752 -77.1277 165° South  Level FlightAware Approximate
06:45PM 15.8521 -77.0946 165° South  Level FlightAware Approximate
06:46PM 15.7289 -77.0616 166° South  Level FlightAware Approximate
06:47PM 15.6057 -77.0285 166° South  Level FlightAware Approximate
06:48PM 15.4826 -76.9955 166° South  Level FlightAware Approximate
06:49PM 15.3594 -76.9626 166° South  Level FlightAware Approximate
06:50PM 15.2362 -76.9297 166° South  Level FlightAware Approximate
06:51PM 15.1130 -76.8968 166° South  Level FlightAware Approximate
06:52PM 14.9897 -76.8646 169° South  Level FlightAware Approximate
06:53PM 14.8649 -76.8392 169° South  Level FlightAware Approximate
06:54PM 14.7400 -76.8138 169° South  Level FlightAware Approximate
06:55PM 14.6152 -76.7885 169° South  Level FlightAware Approximate
06:56PM 14.4904 -76.7632 169° South  Level FlightAware Approximate
06:57PM 14.3655 -76.7379 169° South  Level FlightAware Approximate
06:58PM 14.2407 -76.7127 169° South  Level FlightAware Approximate
06:59PM 14.1159 -76.6875 169° South  Level FlightAware Approximate
07:00PM 13.9910 -76.6623 169° South  Level FlightAware Approximate
07:01PM 13.8662 -76.6371 169° South  Level FlightAware Approximate
07:02PM 13.7413 -76.6120 169° South  Level FlightAware Approximate
07:03PM 13.6165 -76.5869 169° South  Level FlightAware Approximate
07:04PM 13.4916 -76.5618 169° South  Level FlightAware Approximate
07:05PM 13.3668 -76.5368 169° South  Level FlightAware Approximate
07:06PM 13.2419 -76.5117 169° South  Level FlightAware Approximate
07:07PM 13.1171 -76.4867 169° South  Level FlightAware Approximate
07:08PM 12.9922 -76.4617 169° South  Level FlightAware Approximate
07:09PM 12.8673 -76.4368 169° South  Level FlightAware Approximate
07:10PM 12.7425 -76.4117 169° South  Level FlightAware Approximate
07:11PM 12.6176 -76.3867 169° South  Level FlightAware Approximate
07:11PM 11.7870 -76.2310 169° South 491 565 37,000  Level FlightAware
07:11PM 11.7130 -76.2160 169° South 491 565 37,000  Level FlightAware
07:12PM 12.4928 -76.3617 169° South  Level FlightAware Approximate
07:12PM 11.6020 -76.1950 170° South 490 564 37,000  Level FlightAware
07:13PM 11.5290 -76.1800 169° South 490 564 37,000  Level FlightAware
07:13PM 11.4280 -76.1600 169° South 486 559 37,000  Level FlightAware
07:14PM 11.3250 -76.1390 169° South 485 558 37,000  Level FlightAware
07:15PM 11.2400 -76.1220 169° South 486 559 37,000  Level FlightAware
07:15PM 11.1520 -76.1050 169° South 485 558 37,000  Level FlightAware
07:16PM 11.0730 -76.0890 169° South 485 558 37,000  Level FlightAware
07:17PM 10.9850 -76.0720 169° South 485 558 37,000  Level FlightAware
07:17PM 10.9190 -76.0590 169° South 485 558 37,000  Level FlightAware
07:18PM 10.8410 -76.0430 169° South 485 558 37,000  Level FlightAware
07:18PM 10.7670 -76.0290 169° South 486 559 37,000  Level FlightAware
07:19PM 10.6890 -76.0130 169° South 487 560 37,000  Level FlightAware
07:20PM 10.6090 -75.9970 169° South 486 559 37,000  Level FlightAware
07:20PM 10.5320 -75.9820 169° South 485 558 37,000  Level FlightAware
07:21PM 10.4540 -75.9670 169° South 484 557 37,000  Level FlightAware
07:21PM 10.3670 -75.9500 169° South 485 558 37,000  Level FlightAware
07:22PM 10.2990 -75.9360 169° South 485 558 37,000  Level FlightAware
07:22PM 10.2240 -75.9210 169° South 484 557 37,000 60 Level FlightAware
07:23PM 10.1340 -75.9040 169° South 482 555 37,100 60 Climbing FlightAware
07:24PM 10.0700 -75.8910 169° South 481 554 37,100 -120 Level FlightAware
07:24PM 9.9920 -75.8760 169° South 478 550 37,000 -120 Descending FlightAware
07:25PM 9.9160 -75.8610 169° South 477 549 37,000  Level FlightAware
07:25PM 9.8440 -75.8460 168° South 476 548 37,000  Level FlightAware
07:26PM 9.7640 -75.8310 170° South 474 545 37,000  Level FlightAware
07:27PM 9.6910 -75.8160 169° South 473 544 37,000  Level FlightAware
07:27PM 9.6190 -75.8020 169° South 472 543 37,000  Level FlightAware
07:28PM 9.5070 -75.7800 169° South 472 543 37,000  Level FlightAware
07:29PM 9.4300 -75.7650 169° South 473 544 37,000  Level FlightAware
07:29PM 9.3490 -75.7490 169° South 474 545 37,000  Level FlightAware
07:30PM 9.2710 -75.7340 169° South 475 547 37,000  Level FlightAware
07:30PM 9.2030 -75.7210 169° South 476 548 37,000  Level FlightAware
07:31PM 9.0800 -75.6960 169° South 478 550 37,000  Level FlightAware
07:32PM 9.0070 -75.6820 169° South 478 550 37,000  Level FlightAware
07:33PM 8.9160 -75.6640 169° South 480 552 37,000  Level FlightAware
07:33PM 8.8440 -75.6500 169° South 480 552 37,000  Level FlightAware
07:34PM 8.7770 -75.6370 169° South 480 552 37,000  Level FlightAware
07:34PM 8.7100 -75.6240 169° South 480 552 37,000  Level FlightAware
07:35PM 8.6440 -75.6110 169° South 480 552 37,000  Level FlightAware
07:36PM 8.5770 -75.5980 169° South 480 552 37,000  Level FlightAware
07:37PM 8.3830 -75.5600 169° South 476 548 37,000  Level FlightAware
07:37PM 8.2680 -75.5380 169° South 479 551 37,000  Level FlightAware
07:38PM 8.2050 -75.5250 168° South 477 549 37,000 60 Level FlightAware
07:39PM 8.1170 -75.5080 169° South 476 548 37,100 60 Climbing FlightAware
07:39PM 8.0510 -75.4950 169° South 476 548 37,100 -120 Level FlightAware
07:40PM 7.9490 -75.4760 170° South 469 540 37,000 -120 Descending FlightAware
07:41PM 7.8560 -75.4580 169° South 466 536 37,000  Level FlightAware
07:41PM 7.7830 -75.4510 175° South 465 535 37,000  Level FlightAware
07:42PM 7.6890 -75.4440 176° South 465 535 37,000  Level FlightAware
07:43PM 7.6270 -75.4390 175° South 465 535 37,000  Level FlightAware
07:43PM 7.5350 -75.4320 176° South 467 537 37,000  Level FlightAware
07:44PM 7.4710 -75.4270 176° South 468 539 37,000  Level FlightAware
07:44PM 7.3860 -75.4200 175° South 469 540 37,000 -720 Level FlightAware
07:45PM 7.3000 -75.4130 175° South 474 545 36,100 -2,340 Descending FlightAware
07:46PM 7.2190 -75.4070 176° South 484 557 34,100 -3,120 Descending FlightAware
07:46PM 7.1280 -75.3990 175° South 480 552 32,200 -2,700 Descending FlightAware
07:47PM 7.0630 -75.3940 176° South 463 533 31,000 -2,700 Descending FlightAware
07:47PM 6.9910 -75.3880 175° South 453 521 29,300 -2,820 Descending FlightAware
07:48PM 6.9100 -75.3820 176° South 434 499 27,500 -2,520 Descending FlightAware
07:48PM 6.8470 -75.3770 175° South 425 489 26,400 -2,040 Descending FlightAware
07:49PM 6.7840 -75.3720 175° South 414 476 25,300 -2,100 Descending FlightAware
07:50PM 6.7270 -75.3720 180° South 411 473 24,100 -2,400 Descending FlightAware
07:50PM 6.6580 -75.3760 183° South 404 465 22,700 -1,680 Descending FlightAware
07:51PM 6.5680 -75.3820 184° South 403 464 21,600 -720 Descending FlightAware
07:52PM 6.5100 -75.3860 184° South 403 464 21,600  Level FlightAware
07:52PM 6.4530 -75.3900 184° South 403 464 21,600  Level FlightAware
07:53PM 6.3960 -75.3940 184° South 403 464 21,600  Level FlightAware
07:53PM 6.3390 -75.3980 184° South 403 464 21,600  Level FlightAware
07:54PM 6.2820 -75.4020 184° South 403 464 21,600  Level FlightAware
07:57PM 6.1645 -75.4231 259° West  Level Estimated
07:58PM 6.1645 -75.4231 259° West  Level Estimated
07:59PM 6.1645 -75.4231 259° West  Level Estimated
08:00PM 6.1645 -75.4231 259° West  Level Estimated
08:01PM 6.1645 -75.4231 259° West  Level Estimated
08:02PM 6.1645 -75.4231 259° West  Level Estimated
08:03PM 6.1645 -75.4231 259° West  Level Estimated
08:04PM 6.1645 -75.4231 259° West  Level Estimated
08:05PM 6.1645 -75.4231 259° West  Level Estimated
08:06PM 6.1645 -75.4231 259° West  Level Estimated
08:07PM 6.1645 -75.4231 259° West  Level Estimated
08:08PM 6.1645 -75.4231 259° West  Level Estimated
08:09PM 6.1645 -75.4231 259° West  Level Estimated
08:10PM 6.1645 -75.4231 259° West  Level Estimated
08:11PM 6.1645 -75.4231 259° West  Level Estimated
08:12PM 6.1645 -75.4231 259° West  Level Estimated
08:13PM 6.1645 -75.4231 259° West  Level Estimated
08:14PM 6.1645 -75.4231 259° West  Level Estimated
08:15PM 6.1645 -75.4231 259° West  Level Estimated
08:16PM 6.1645 -75.4231 259° West  Level Estimated
08:17PM 6.1645 -75.4231 259° West  Level Estimated
08:18PM 6.1645 -75.4231 259° West  Level Estimated
08:19PM 6.1645 -75.4231 259° West  Level Estimated
08:20PM 6.1645 -75.4231 259° West  Level Estimated